createdAt,value
2023-02-12T00:02:01.156Z,14.03
2023-02-12T00:04:29.916Z,14.70
2023-02-12T00:06:58.728Z,15.10
2023-02-12T00:09:27.562Z,14.87
2023-02-12T00:11:56.304Z,15.18
2023-02-12T00:14:25.187Z,14.30
2023-02-12T00:16:55.348Z,15.10
2023-02-12T00:19:24.281Z,14.63
2023-02-12T00:21:53.119Z,14.13
2023-02-12T00:24:21.960Z,15.37
2023-02-12T00:26:51.154Z,14.90
2023-02-12T00:29:19.836Z,15.87
2023-02-12T00:31:48.821Z,14.73
2023-02-12T00:34:19.378Z,15.10
2023-02-12T00:36:48.119Z,15.30
2023-02-12T00:39:16.937Z,15.30
2023-02-12T00:41:45.706Z,15.87
2023-02-12T00:44:14.602Z,15.13
2023-02-12T00:46:43.417Z,14.77
2023-02-12T00:49:12.224Z,15.30
2023-02-12T00:51:42.733Z,15.70
2023-02-12T00:54:11.569Z,15.27
2023-02-12T00:56:40.250Z,15.37
2023-02-12T00:59:09.531Z,16.07
2023-02-12T01:01:38.229Z,15.97
2023-02-12T01:04:07.582Z,15.33
2023-02-12T01:06:36.336Z,14.97
2023-02-12T01:09:06.550Z,14.87
2023-02-12T01:11:35.395Z,15.00
2023-02-12T01:14:04.629Z,14.23
2023-02-12T01:16:36.684Z,13.50
2023-02-12T01:19:06.339Z,14.20
2023-02-12T01:21:36.500Z,14.50
2023-02-12T01:24:07.589Z,14.27
2023-02-12T01:26:36.495Z,14.60
2023-02-12T01:29:08.789Z,13.70
2023-02-12T01:31:40.661Z,14.70
2023-02-12T01:34:11.922Z,13.20
2023-02-12T01:36:40.961Z,13.70
2023-02-12T01:39:13.516Z,13.27
2023-02-12T01:41:45.878Z,13.90
2023-02-12T01:44:21.116Z,13.57
2023-02-12T01:46:52.156Z,13.53
2023-02-12T01:49:25.221Z,13.67
2023-02-12T01:52:00.304Z,13.20
2023-02-12T01:54:31.764Z,12.93
2023-02-12T01:57:02.347Z,12.40
2023-02-12T01:59:32.621Z,12.47
2023-02-12T02:02:01.505Z,12.50
2023-02-12T02:04:36.101Z,13.57
2023-02-12T02:07:08.912Z,12.67
2023-02-12T02:09:41.562Z,12.77
2023-02-12T02:12:27.941Z,12.53
2023-02-12T02:15:01.162Z,12.87
2023-02-12T02:17:55.630Z,12.00
2023-02-12T02:20:50.033Z,12.40
2023-02-12T02:24:18.729Z,12.67
2023-02-12T02:27:18.103Z,13.10
2023-02-12T02:30:24.141Z,12.77
2023-02-12T02:33:05.889Z,13.57
2023-02-12T02:35:46.963Z,13.43
2023-02-12T02:38:29.619Z,12.60
2023-02-12T02:41:07.249Z,13.68
2023-02-12T02:43:42.067Z,12.90
2023-02-12T02:46:19.701Z,13.00
2023-02-12T02:48:54.870Z,12.53
2023-02-12T02:51:30.762Z,12.80
2023-02-12T02:54:07.051Z,13.00
2023-02-12T02:56:40.390Z,13.37
2023-02-12T02:59:14.928Z,13.83
2023-02-12T03:01:51.354Z,13.90
2023-02-12T03:04:29.744Z,13.53
2023-02-12T03:07:04.876Z,12.63
2023-02-12T03:09:41.284Z,12.47
2023-02-12T03:12:17.914Z,12.40
2023-02-12T03:14:55.557Z,13.47
2023-02-12T03:17:32.874Z,12.67
2023-02-12T03:20:09.689Z,13.30
2023-02-12T03:22:43.542Z,13.20
2023-02-12T03:25:17.708Z,13.17
2023-02-12T03:27:53.880Z,13.13
2023-02-12T03:30:23.084Z,13.43
2023-02-12T03:33:08.176Z,13.30
2023-02-12T03:35:45.505Z,13.33
2023-02-12T03:38:25.765Z,13.05
2023-02-12T03:41:01.635Z,13.65
2023-02-12T03:43:38.106Z,13.68
2023-02-12T03:46:18.964Z,13.50
2023-02-12T03:49:00.715Z,13.50
2023-02-12T03:51:37.660Z,14.23
2023-02-12T03:54:10.834Z,14.63
2023-02-12T03:56:45.714Z,13.23
2023-02-12T03:59:14.683Z,12.47
2023-02-12T04:01:43.651Z,12.80
2023-02-12T04:04:14.651Z,14.17
2023-02-12T04:06:43.690Z,14.27
2023-02-12T04:09:15.246Z,13.18
2023-02-12T04:12:03.965Z,14.23
2023-02-12T04:14:45.235Z,13.85
2023-02-12T04:17:33.786Z,12.97
2023-02-12T04:20:19.683Z,13.80
2023-02-12T04:23:01.439Z,13.53
2023-02-12T04:25:46.431Z,14.03
2023-02-12T04:28:29.540Z,13.35
2023-02-12T04:31:05.037Z,13.67
2023-02-12T04:33:50.160Z,13.77
2023-02-12T04:36:27.864Z,15.03
2023-02-12T04:39:03.642Z,14.30
2023-02-12T04:41:33.404Z,14.03
2023-02-12T04:44:20.980Z,14.23
2023-02-12T04:46:49.893Z,13.50
2023-02-12T04:49:21.982Z,14.70
2023-02-12T04:51:53.869Z,13.93
2023-02-12T04:54:25.211Z,13.83
2023-02-12T04:56:54.275Z,14.03
2023-02-12T04:59:23.094Z,14.55
2023-02-12T05:01:52.033Z,14.20
2023-02-12T05:04:21.273Z,13.73
2023-02-12T05:06:51.432Z,13.77
2023-02-12T05:09:21.888Z,13.47
2023-02-12T05:11:50.645Z,13.87
2023-02-12T05:14:19.381Z,13.60
2023-02-12T05:16:48.126Z,14.70
2023-02-12T05:19:17.012Z,13.53
2023-02-12T05:21:45.801Z,14.47
2023-02-12T05:24:15.918Z,14.33
2023-02-12T05:26:44.787Z,14.07
2023-02-12T05:29:13.593Z,13.60
2023-02-12T05:31:42.396Z,14.43
2023-02-12T05:34:13.204Z,13.40
2023-02-12T05:36:42.261Z,14.18
2023-02-12T05:39:12.038Z,14.00
2023-02-12T05:41:42.210Z,13.63
2023-02-12T05:44:12.542Z,14.47
2023-02-12T05:46:41.326Z,15.23
2023-02-12T05:49:10.162Z,14.20
2023-02-12T05:51:39.650Z,14.77
2023-02-12T05:54:09.237Z,13.53
2023-02-12T05:56:43.463Z,14.33
2023-02-12T05:59:17.220Z,13.97
2023-02-12T06:01:48.039Z,13.67
2023-02-12T06:04:19.801Z,13.57
2023-02-12T06:06:48.882Z,13.70
2023-02-12T06:09:17.912Z,13.30
2023-02-12T06:11:48.245Z,12.97
2023-02-12T06:14:19.872Z,12.63
2023-02-12T06:16:50.621Z,13.00
2023-02-12T06:19:21.373Z,12.70
2023-02-12T06:21:50.231Z,12.83
2023-02-12T06:24:19.965Z,12.77
2023-02-12T06:26:52.516Z,13.07
2023-02-12T06:29:23.837Z,13.37
2023-02-12T06:31:52.874Z,12.98
2023-02-12T06:34:21.716Z,12.13
2023-02-12T06:36:50.527Z,11.60
2023-02-12T06:39:19.470Z,11.30
2023-02-12T06:41:49.691Z,10.90
2023-02-12T06:44:18.504Z,10.88
2023-02-12T06:46:47.294Z,10.80
2023-02-12T06:49:16.721Z,9.55
2023-02-12T06:51:45.518Z,10.00
2023-02-12T06:54:16.868Z,9.68
2023-02-12T06:56:45.964Z,9.98
2023-02-12T06:59:18.320Z,10.07
2023-02-12T07:01:47.145Z,10.05
2023-02-12T07:04:16.222Z,9.57
2023-02-12T07:06:45.016Z,9.60
2023-02-12T07:09:13.865Z,9.10
2023-02-12T07:11:42.667Z,10.88
2023-02-12T07:14:18.021Z,9.38
2023-02-12T07:16:46.977Z,9.30
2023-02-12T07:19:17.048Z,8.68
2023-02-12T07:21:45.937Z,8.13
2023-02-12T07:24:33.401Z,8.40
2023-02-12T07:27:02.205Z,8.45
2023-02-12T07:29:32.554Z,6.28
2023-02-12T07:32:01.990Z,6.75
2023-02-12T07:34:30.768Z,7.70
2023-02-12T07:36:59.599Z,6.72
2023-02-12T07:39:28.410Z,6.35
2023-02-12T07:41:58.356Z,6.43
2023-02-12T07:44:27.123Z,6.10
2023-02-12T07:46:57.366Z,7.13
2023-02-12T07:49:26.170Z,6.03
2023-02-12T07:51:56.858Z,5.53
2023-02-12T07:54:25.538Z,6.13
2023-02-12T07:56:54.407Z,5.72
2023-02-12T07:59:23.388Z,5.43
2023-02-12T08:01:54.186Z,5.43
2023-02-12T08:04:27.132Z,5.13
2023-02-12T08:06:57.909Z,5.50
2023-02-12T08:09:30.986Z,6.60
2023-02-12T08:11:59.795Z,5.60
2023-02-12T08:14:29.190Z,5.50
2023-02-12T08:16:58.045Z,4.95
2023-02-12T08:19:28.459Z,5.28
2023-02-12T08:21:58.484Z,5.90
2023-02-12T08:24:27.918Z,6.43
2023-02-12T08:26:57.979Z,5.22
2023-02-12T08:29:30.289Z,5.60
2023-02-12T08:32:01.709Z,5.63
2023-02-12T08:34:34.998Z,5.53
2023-02-12T08:37:06.513Z,6.50
2023-02-12T08:39:35.787Z,8.98
2023-02-12T08:42:04.936Z,5.82
2023-02-12T08:44:34.122Z,4.88
2023-02-12T08:47:03.004Z,5.53
2023-02-12T08:49:33.301Z,5.60
2023-02-12T08:52:03.257Z,6.78
2023-02-12T08:54:33.632Z,7.50
2023-02-12T08:57:04.674Z,6.45
2023-02-12T08:59:33.826Z,5.32
2023-02-12T09:02:04.416Z,6.68
2023-02-12T09:04:36.115Z,6.63
2023-02-12T09:07:04.817Z,5.78
2023-02-12T09:09:34.338Z,5.53
2023-02-12T09:12:03.202Z,6.70
2023-02-12T09:14:31.944Z,6.35
2023-02-12T09:17:00.826Z,6.00
2023-02-12T09:19:29.556Z,6.13
2023-02-12T09:21:59.795Z,5.88
2023-02-12T09:24:28.760Z,6.22
2023-02-12T09:26:57.813Z,5.57
2023-02-12T09:29:26.783Z,5.47
2023-02-12T09:31:55.705Z,4.68
2023-02-12T09:34:24.645Z,4.65
2023-02-12T09:36:53.375Z,4.30
2023-02-12T09:39:24.180Z,4.43
2023-02-12T09:42:37.147Z,4.57
2023-02-12T09:45:18.169Z,4.30
2023-02-12T09:47:56.530Z,4.40
2023-02-12T09:50:38.814Z,4.75
2023-02-12T09:53:10.070Z,4.05
2023-02-12T09:55:41.774Z,4.20
2023-02-12T09:58:21.420Z,3.60
2023-02-12T10:00:50.170Z,3.78
2023-02-12T10:03:19.928Z,4.35
2023-02-12T10:05:55.326Z,4.22
2023-02-12T10:09:06.057Z,3.88
2023-02-12T10:11:56.811Z,3.10
2023-02-12T10:14:59.994Z,3.72
2023-02-12T10:17:43.189Z,4.32
2023-02-12T10:20:55.352Z,4.30
2023-02-12T10:23:47.261Z,3.60
2023-02-12T10:26:25.872Z,3.53
2023-02-12T10:29:01.519Z,4.30
2023-02-12T10:31:36.290Z,3.30
2023-02-12T10:34:17.881Z,3.58
2023-02-12T10:36:49.220Z,5.40
2023-02-12T10:39:25.389Z,3.78
2023-02-12T10:42:04.108Z,4.32
2023-02-12T10:44:34.351Z,4.28
2023-02-12T10:47:03.568Z,3.97
2023-02-12T10:49:34.351Z,2.60
2023-02-12T10:52:14.384Z,4.13
2023-02-12T10:54:45.950Z,3.40
2023-02-12T10:57:22.985Z,2.70
2023-02-12T10:59:57.205Z,2.70
2023-02-12T11:02:31.926Z,2.53
2023-02-12T11:05:16.900Z,2.50
2023-02-12T11:07:50.939Z,2.47
2023-02-12T11:10:23.573Z,2.40
2023-02-12T11:12:52.424Z,2.47
2023-02-12T11:15:28.434Z,1.85
2023-02-12T11:18:00.978Z,2.53
2023-02-12T11:20:34.708Z,3.33
2023-02-12T11:23:07.259Z,3.05
2023-02-12T11:25:39.752Z,3.22
2023-02-12T11:28:17.991Z,2.65
2023-02-12T11:30:58.382Z,2.45
2023-02-12T11:33:34.795Z,1.92
2023-02-12T11:36:16.025Z,2.22
2023-02-12T11:38:54.546Z,1.85
2023-02-12T11:41:34.627Z,1.65
2023-02-12T11:44:10.601Z,1.70
2023-02-12T11:46:47.434Z,1.98
2023-02-12T11:49:24.194Z,1.80
2023-02-12T11:51:54.250Z,1.90
2023-02-12T11:54:28.136Z,1.90
2023-02-12T11:56:57.084Z,1.77
2023-02-12T11:59:38.733Z,1.92
2023-02-12T12:02:28.861Z,1.80
2023-02-12T12:05:14.888Z,2.08
2023-02-12T12:07:52.229Z,1.42
2023-02-12T12:10:32.897Z,1.83
2023-02-12T12:13:07.027Z,2.10
2023-02-12T12:16:00.575Z,1.95
2023-02-12T12:19:02.197Z,2.40
2023-02-12T12:21:44.019Z,2.05
2023-02-12T12:24:21.655Z,3.58
2023-02-12T12:27:03.383Z,2.38
2023-02-12T12:29:53.118Z,2.17
2023-02-12T12:32:25.973Z,1.67
2023-02-12T12:34:56.381Z,1.70
2023-02-12T12:37:38.831Z,1.60
2023-02-12T12:40:43.747Z,1.55
2023-02-12T12:43:24.654Z,2.20
2023-02-12T12:46:26.624Z,1.70
2023-02-12T12:49:35.994Z,2.20
2023-02-12T12:52:38.178Z,2.70
2023-02-12T12:55:46.353Z,1.70
2023-02-12T12:58:29.898Z,1.92
2023-02-12T13:01:37.452Z,2.15
2023-02-12T13:04:47.198Z,2.17
2023-02-12T13:07:36.673Z,2.25
2023-02-12T13:10:21.926Z,2.60
2023-02-12T13:13:23.365Z,2.30
2023-02-12T13:16:02.451Z,2.55
2023-02-12T13:19:10.331Z,2.10
2023-02-12T13:22:00.112Z,2.67
2023-02-12T13:24:45.098Z,2.45
2023-02-12T13:27:20.309Z,2.45
2023-02-12T13:29:56.260Z,5.53
2023-02-12T13:32:31.416Z,3.03
2023-02-12T13:35:02.107Z,2.03
2023-02-12T13:37:39.967Z,2.58
2023-02-12T13:40:19.515Z,2.20
2023-02-12T13:42:57.387Z,1.48
2023-02-12T13:45:45.603Z,2.20
2023-02-12T13:48:38.216Z,2.08
2023-02-12T13:51:22.754Z,2.00
2023-02-12T13:54:14.696Z,2.15
2023-02-12T13:56:48.660Z,2.40
2023-02-12T13:59:48.938Z,2.33
2023-02-12T14:02:52.159Z,2.15
2023-02-12T14:05:32.140Z,1.80
2023-02-12T14:08:06.018Z,2.00
2023-02-12T14:10:40.850Z,2.30
2023-02-12T14:13:25.206Z,2.67
2023-02-12T14:15:58.017Z,2.25
2023-02-12T14:18:35.000Z,2.97
2023-02-12T14:21:43.266Z,2.22
2023-02-12T14:24:52.111Z,3.05
2023-02-12T14:27:43.365Z,2.10
2023-02-12T14:30:39.018Z,2.22
2023-02-12T14:33:28.165Z,2.03
2023-02-12T14:36:19.811Z,2.75
2023-02-12T14:39:06.087Z,2.15
2023-02-12T14:41:38.904Z,4.25
2023-02-12T14:44:48.210Z,8.35
2023-02-12T14:47:55.445Z,2.97
2023-02-12T14:50:37.459Z,2.30
2023-02-12T14:53:23.251Z,5.40
2023-02-12T14:55:54.096Z,3.50
2023-02-12T14:58:27.074Z,3.25
2023-02-12T15:00:59.186Z,2.10
2023-02-12T15:03:40.523Z,5.07
2023-02-12T15:06:17.631Z,5.05
2023-02-12T15:08:54.254Z,5.88
2023-02-12T15:11:38.162Z,2.15
2023-02-12T15:14:14.619Z,2.42
2023-02-12T15:17:00.246Z,1.98
2023-02-12T15:19:55.535Z,2.53
2023-02-12T15:22:32.387Z,3.03
2023-02-12T15:25:16.567Z,2.47
2023-02-12T15:27:47.482Z,2.45
2023-02-12T15:30:25.870Z,3.17
2023-02-12T15:32:57.994Z,2.50
2023-02-12T15:35:32.490Z,2.40
2023-02-12T15:38:02.522Z,2.72
2023-02-12T15:40:33.025Z,2.28
2023-02-12T15:43:18.250Z,2.38
2023-02-12T15:45:54.315Z,2.80
2023-02-12T15:48:29.918Z,2.35
2023-02-12T15:51:10.863Z,2.72
2023-02-12T15:53:41.787Z,2.58
2023-02-12T15:56:16.697Z,3.17
2023-02-12T15:58:52.446Z,3.10
2023-02-12T16:01:24.091Z,3.17
2023-02-12T16:03:55.566Z,2.45
2023-02-12T16:06:29.283Z,3.47
2023-02-12T16:09:04.453Z,3.20
2023-02-12T16:11:35.746Z,3.28
2023-02-12T16:14:10.277Z,2.92
2023-02-12T16:16:49.964Z,2.70
2023-02-12T16:19:23.418Z,3.20
2023-02-12T16:22:01.505Z,2.83
2023-02-12T16:24:34.926Z,2.75
2023-02-12T16:27:17.936Z,3.50
2023-02-12T16:29:50.517Z,3.10
2023-02-12T16:32:37.351Z,3.28
2023-02-12T16:35:26.234Z,3.58
2023-02-12T16:38:03.866Z,3.75
2023-02-12T16:40:37.992Z,3.65
2023-02-12T16:43:27.809Z,4.40
2023-02-12T16:46:07.601Z,4.15
2023-02-12T16:48:42.810Z,4.55
2023-02-12T16:51:25.586Z,4.13
2023-02-12T16:53:57.911Z,4.38
2023-02-12T16:56:29.481Z,4.43
2023-02-12T16:59:00.596Z,4.53
2023-02-12T17:01:33.519Z,4.35
2023-02-12T17:04:10.296Z,3.50
2023-02-12T17:06:39.122Z,3.85
2023-02-12T17:09:09.332Z,3.53
2023-02-12T17:11:38.166Z,4.03
2023-02-12T17:14:06.915Z,4.20
2023-02-12T17:16:36.029Z,4.32
2023-02-12T17:19:05.010Z,4.10
2023-02-12T17:21:38.429Z,4.50
2023-02-12T17:24:19.998Z,6.50
2023-02-12T17:26:50.680Z,4.35
2023-02-12T17:29:20.166Z,4.13
2023-02-12T17:31:49.508Z,4.30
2023-02-12T17:34:18.616Z,3.75
2023-02-12T17:36:47.595Z,3.88
2023-02-12T17:39:19.373Z,3.97
2023-02-12T17:41:49.100Z,4.15
2023-02-12T17:44:17.899Z,4.40
2023-02-12T17:46:46.760Z,4.47
2023-02-12T17:49:15.632Z,4.20
2023-02-12T17:51:44.392Z,6.18
2023-02-12T17:54:14.018Z,4.85
2023-02-12T17:56:44.238Z,5.72
2023-02-12T17:59:13.675Z,4.75
2023-02-12T18:01:42.680Z,5.05
2023-02-12T18:04:11.638Z,4.30
2023-02-12T18:06:40.490Z,4.43
2023-02-12T18:09:09.494Z,4.53
2023-02-12T18:11:40.392Z,4.03
2023-02-12T18:14:12.862Z,4.22
2023-02-12T18:16:44.750Z,4.40
2023-02-12T18:19:13.707Z,4.40
2023-02-12T18:21:42.567Z,4.57
2023-02-12T18:24:11.931Z,4.10
2023-02-12T18:26:40.674Z,3.97
2023-02-12T18:29:11.560Z,4.22
2023-02-12T18:31:40.581Z,4.18
2023-02-12T18:34:10.284Z,4.72
2023-02-12T18:36:39.160Z,4.18
2023-02-12T18:39:07.936Z,5.10
2023-02-12T18:41:36.967Z,4.63
2023-02-12T18:44:06.103Z,5.10
2023-02-12T18:46:36.339Z,4.88
2023-02-12T18:49:06.939Z,4.43
2023-02-12T18:51:39.931Z,5.60
2023-02-12T18:54:12.971Z,5.40
2023-02-12T18:56:44.598Z,5.63
2023-02-12T18:59:16.087Z,5.13
2023-02-12T19:01:47.489Z,5.72
2023-02-12T19:04:19.859Z,5.00
2023-02-12T19:06:51.426Z,4.78
2023-02-12T19:09:24.377Z,5.25
2023-02-12T19:11:59.050Z,5.28
2023-02-12T19:14:29.081Z,5.68
2023-02-12T19:16:59.370Z,5.50
2023-02-12T19:19:29.538Z,6.22
2023-02-12T19:22:04.243Z,5.18
2023-02-12T19:24:45.863Z,5.30
2023-02-12T19:27:15.681Z,5.20
2023-02-12T19:29:44.706Z,5.18
2023-02-12T19:32:15.241Z,5.15
2023-02-12T19:34:45.648Z,5.35
2023-02-12T19:37:15.180Z,5.30
2023-02-12T19:39:44.088Z,5.40
2023-02-12T19:42:15.032Z,6.28
2023-02-12T19:44:44.572Z,4.85
2023-02-12T19:47:15.626Z,5.55
2023-02-12T19:49:44.552Z,6.78
2023-02-12T19:52:13.337Z,5.35
2023-02-12T19:54:42.189Z,5.25
2023-02-12T19:57:13.481Z,4.95
2023-02-12T19:59:42.712Z,4.95
2023-02-12T20:02:13.535Z,5.10
2023-02-12T20:04:42.623Z,5.85
2023-02-12T20:07:11.611Z,5.78
2023-02-12T20:09:41.241Z,5.10
2023-02-12T20:12:10.058Z,5.47
2023-02-12T20:14:38.980Z,14.95
2023-02-12T20:17:07.842Z,9.15
2023-02-12T20:19:38.229Z,5.28
2023-02-12T20:22:06.989Z,5.45
2023-02-12T20:24:36.351Z,5.70
2023-02-12T20:27:05.586Z,5.93
2023-02-12T20:29:34.465Z,5.67
2023-02-12T20:32:03.298Z,6.30
2023-02-12T20:34:42.488Z,4.88
2023-02-12T20:37:20.075Z,15.17
2023-02-12T20:39:49.262Z,13.00
2023-02-12T20:42:18.571Z,6.80
2023-02-12T20:44:47.374Z,6.63
2023-02-12T20:47:16.158Z,6.80
2023-02-12T20:49:44.889Z,6.50
2023-02-12T20:52:13.932Z,6.70
2023-02-12T20:54:45.473Z,6.43
2023-02-12T20:57:15.286Z,6.50
2023-02-12T20:59:44.082Z,5.83
2023-02-12T21:02:13.458Z,6.07
2023-02-12T21:04:42.376Z,6.70
2023-02-12T21:07:11.275Z,6.35
2023-02-12T21:09:40.321Z,6.60
2023-02-12T21:12:10.722Z,7.10
2023-02-12T21:14:39.760Z,7.10
2023-02-12T21:17:08.507Z,7.63
2023-02-12T21:19:37.328Z,13.93
2023-02-12T21:22:06.102Z,13.70
2023-02-12T21:24:35.299Z,9.17
2023-02-12T21:27:04.027Z,7.03
2023-02-12T21:29:34.305Z,7.30
2023-02-12T21:32:03.259Z,7.37
2023-02-12T21:34:32.106Z,8.10
2023-02-12T21:37:00.828Z,7.70
2023-02-12T21:39:30.059Z,8.30
2023-02-12T21:42:02.428Z,7.87
2023-02-12T21:44:35.441Z,7.80
2023-02-12T21:47:05.017Z,8.07
2023-02-12T21:49:33.924Z,8.80
2023-02-12T21:52:06.697Z,8.17
2023-02-12T21:54:35.937Z,9.33
2023-02-12T21:57:05.174Z,9.70
2023-02-12T21:59:35.809Z,9.00
2023-02-12T22:02:05.309Z,9.90
2023-02-12T22:04:34.257Z,19.27
2023-02-12T22:07:03.575Z,12.17
2023-02-12T22:09:32.786Z,10.40
2023-02-12T22:12:01.714Z,10.17
2023-02-12T22:14:31.039Z,9.90
2023-02-12T22:17:01.878Z,9.73
2023-02-12T22:19:31.013Z,9.43
2023-02-12T22:22:00.090Z,9.67
2023-02-12T22:24:29.006Z,10.10
2023-02-12T22:26:57.942Z,9.80
2023-02-12T22:29:26.693Z,10.20
2023-02-12T22:31:55.756Z,10.17
2023-02-12T22:34:26.116Z,10.77
2023-02-12T22:36:54.998Z,10.73
2023-02-12T22:39:23.752Z,10.37
2023-02-12T22:41:52.494Z,9.73
2023-02-12T22:44:21.514Z,10.33
2023-02-12T22:46:50.629Z,11.73
2023-02-12T22:49:19.961Z,11.67
2023-02-12T22:51:50.270Z,12.57
2023-02-12T22:54:20.777Z,10.90
2023-02-12T22:56:52.882Z,11.47
2023-02-12T22:59:21.800Z,10.30
2023-02-12T23:01:50.700Z,10.50
2023-02-12T23:04:20.654Z,10.37
2023-02-12T23:06:50.984Z,9.50
2023-02-12T23:09:20.233Z,9.47
2023-02-12T23:11:49.670Z,9.43
2023-02-12T23:14:19.105Z,9.97
2023-02-12T23:16:48.848Z,9.97
2023-02-12T23:19:17.959Z,10.17
2023-02-12T23:21:46.884Z,10.30
2023-02-12T23:24:17.318Z,9.70
2023-02-12T23:26:46.257Z,9.60
2023-02-12T23:29:15.214Z,10.70
2023-02-12T23:31:44.218Z,11.07
2023-02-12T23:34:13.058Z,10.33
2023-02-12T23:36:41.798Z,9.90
2023-02-12T23:39:13.982Z,9.63
2023-02-12T23:41:44.286Z,10.67
2023-02-12T23:44:13.438Z,10.50
2023-02-12T23:46:42.385Z,9.97
2023-02-12T23:49:11.430Z,10.07
2023-02-12T23:51:40.272Z,10.83
2023-02-12T23:54:09.074Z,10.60
2023-02-12T23:56:38.218Z,10.33
2023-02-12T23:59:09.245Z,10.97
